sensor_id;sensor_type;location;lat;lon;timestamp;P1;durP1;ratioP1;P2;durP2;ratioP2
66603;SDS011;53460;39.612;8.822;2024-01-30T00:01:55;2.80;;;2.38;;
66603;SDS011;53460;39.612;8.822;2024-01-30T00:04:21;2.17;;;1.98;;
66603;SDS011;53460;39.612;8.822;2024-01-30T00:06:46;2.17;;;1.98;;
66603;SDS011;53460;39.612;8.822;2024-01-30T00:09:12;2.20;;;2.00;;
66603;SDS011;53460;39.612;8.822;2024-01-30T00:11:39;2.55;;;2.10;;
66603;SDS011;53460;39.612;8.822;2024-01-30T00:14:04;2.28;;;1.83;;
66603;SDS011;53460;39.612;8.822;2024-01-30T00:16:30;2.15;;;1.73;;
66603;SDS011;53460;39.612;8.822;2024-01-30T00:18:56;4.18;;;2.13;;
66603;SDS011;53460;39.612;8.822;2024-01-30T00:21:22;2.03;;;1.83;;
66603;SDS011;53460;39.612;8.822;2024-01-30T00:23:48;1.67;;;1.58;;
66603;SDS011;53460;39.612;8.822;2024-01-30T00:26:15;1.73;;;1.55;;
66603;SDS011;53460;39.612;8.822;2024-01-30T00:28:41;3.65;;;1.75;;
66603;SDS011;53460;39.612;8.822;2024-01-30T00:31:07;5.00;;;1.55;;
66603;SDS011;53460;39.612;8.822;2024-01-30T00:33:34;5.95;;;2.35;;
66603;SDS011;53460;39.612;8.822;2024-01-30T00:36:00;2.13;;;1.92;;
66603;SDS011;53460;39.612;8.822;2024-01-30T00:38:25;3.15;;;1.60;;
66603;SDS011;53460;39.612;8.822;2024-01-30T00:40:51;2.95;;;1.73;;
66603;SDS011;53460;39.612;8.822;2024-01-30T00:43:17;3.42;;;1.60;;
66603;SDS011;53460;39.612;8.822;2024-01-30T00:45:45;2.00;;;1.60;;
66603;SDS011;53460;39.612;8.822;2024-01-30T00:48:11;3.70;;;1.88;;
66603;SDS011;53460;39.612;8.822;2024-01-30T00:50:37;3.58;;;1.85;;
66603;SDS011;53460;39.612;8.822;2024-01-30T00:53:03;2.80;;;2.47;;
66603;SDS011;53460;39.612;8.822;2024-01-30T00:55:29;3.60;;;3.30;;
66603;SDS011;53460;39.612;8.822;2024-01-30T00:57:54;2.83;;;2.42;;
66603;SDS011;53460;39.612;8.822;2024-01-30T01:00:20;2.40;;;2.20;;
66603;SDS011;53460;39.612;8.822;2024-01-30T01:02:46;2.92;;;1.88;;
66603;SDS011;53460;39.612;8.822;2024-01-30T01:05:12;1.83;;;1.73;;
66603;SDS011;53460;39.612;8.822;2024-01-30T01:07:38;1.63;;;1.52;;
66603;SDS011;53460;39.612;8.822;2024-01-30T01:10:05;2.08;;;1.52;;
66603;SDS011;53460;39.612;8.822;2024-01-30T01:12:31;2.70;;;1.80;;
66603;SDS011;53460;39.612;8.822;2024-01-30T01:14:57;6.45;;;1.70;;
66603;SDS011;53460;39.612;8.822;2024-01-30T01:17:23;2.38;;;1.65;;
66603;SDS011;53460;39.612;8.822;2024-01-30T01:19:49;5.63;;;2.15;;
66603;SDS011;53460;39.612;8.822;2024-01-30T01:22:15;2.65;;;1.45;;
66603;SDS011;53460;39.612;8.822;2024-01-30T01:24:42;1.52;;;1.42;;
66603;SDS011;53460;39.612;8.822;2024-01-30T01:27:08;2.67;;;1.80;;
66603;SDS011;53460;39.612;8.822;2024-01-30T01:29:33;1.50;;;1.40;;
66603;SDS011;53460;39.612;8.822;2024-01-30T01:31:59;3.45;;;1.45;;
66603;SDS011;53460;39.612;8.822;2024-01-30T01:34:25;2.80;;;1.67;;
66603;SDS011;53460;39.612;8.822;2024-01-30T01:36:51;2.28;;;1.70;;
66603;SDS011;53460;39.612;8.822;2024-01-30T01:39:20;3.22;;;1.75;;
66603;SDS011;53460;39.612;8.822;2024-01-30T01:41:49;2.97;;;1.77;;
66603;SDS011;53460;39.612;8.822;2024-01-30T01:44:14;4.50;;;1.92;;
66603;SDS011;53460;39.612;8.822;2024-01-30T01:46:40;4.00;;;1.88;;
66603;SDS011;53460;39.612;8.822;2024-01-30T01:49:06;3.03;;;1.85;;
66603;SDS011;53460;39.612;8.822;2024-01-30T01:51:33;2.90;;;1.90;;
66603;SDS011;53460;39.612;8.822;2024-01-30T01:54:02;4.38;;;2.10;;
66603;SDS011;53460;39.612;8.822;2024-01-30T01:56:29;1.60;;;1.50;;
66603;SDS011;53460;39.612;8.822;2024-01-30T01:58:57;5.72;;;1.50;;
66603;SDS011;53460;39.612;8.822;2024-01-30T02:01:25;3.03;;;1.92;;
66603;SDS011;53460;39.612;8.822;2024-01-30T02:03:53;3.78;;;1.80;;
66603;SDS011;53460;39.612;8.822;2024-01-30T02:06:21;1.67;;;1.58;;
66603;SDS011;53460;39.612;8.822;2024-01-30T02:08:47;2.50;;;1.40;;
66603;SDS011;53460;39.612;8.822;2024-01-30T02:11:12;2.75;;;1.35;;
66603;SDS011;53460;39.612;8.822;2024-01-30T02:13:39;4.18;;;1.90;;
66603;SDS011;53460;39.612;8.822;2024-01-30T02:16:06;2.90;;;1.70;;
66603;SDS011;53460;39.612;8.822;2024-01-30T02:18:32;1.98;;;1.48;;
66603;SDS011;53460;39.612;8.822;2024-01-30T02:20:58;2.80;;;1.65;;
66603;SDS011;53460;39.612;8.822;2024-01-30T02:23:27;2.45;;;1.67;;
66603;SDS011;53460;39.612;8.822;2024-01-30T02:25:53;2.35;;;1.60;;
66603;SDS011;53460;39.612;8.822;2024-01-30T02:28:19;2.03;;;1.45;;
66603;SDS011;53460;39.612;8.822;2024-01-30T02:30:46;1.48;;;1.38;;
66603;SDS011;53460;39.612;8.822;2024-01-30T02:33:12;1.90;;;1.60;;
66603;SDS011;53460;39.612;8.822;2024-01-30T02:35:38;4.82;;;1.95;;
66603;SDS011;53460;39.612;8.822;2024-01-30T02:38:04;2.75;;;2.10;;
66603;SDS011;53460;39.612;8.822;2024-01-30T02:40:30;6.20;;;2.30;;
66603;SDS011;53460;39.612;8.822;2024-01-30T02:42:57;2.53;;;2.33;;
66603;SDS011;53460;39.612;8.822;2024-01-30T02:45:24;2.17;;;1.95;;
66603;SDS011;53460;39.612;8.822;2024-01-30T02:47:50;2.78;;;1.67;;
66603;SDS011;53460;39.612;8.822;2024-01-30T02:50:16;2.38;;;1.70;;
66603;SDS011;53460;39.612;8.822;2024-01-30T02:52:41;1.63;;;1.52;;
66603;SDS011;53460;39.612;8.822;2024-01-30T02:55:09;3.47;;;1.50;;
66603;SDS011;53460;39.612;8.822;2024-01-30T02:57:35;3.72;;;2.20;;
66603;SDS011;53460;39.612;8.822;2024-01-30T03:00:01;1.50;;;1.40;;
66603;SDS011;53460;39.612;8.822;2024-01-30T03:02:29;2.05;;;1.52;;
66603;SDS011;53460;39.612;8.822;2024-01-30T03:04:55;1.88;;;1.30;;
66603;SDS011;53460;39.612;8.822;2024-01-30T03:07:20;2.17;;;1.40;;
66603;SDS011;53460;39.612;8.822;2024-01-30T03:09:46;2.05;;;1.40;;
66603;SDS011;53460;39.612;8.822;2024-01-30T03:12:12;1.75;;;1.27;;
66603;SDS011;53460;39.612;8.822;2024-01-30T03:14:38;2.72;;;1.35;;
66603;SDS011;53460;39.612;8.822;2024-01-30T03:17:03;4.50;;;1.40;;
66603;SDS011;53460;39.612;8.822;2024-01-30T03:19:29;1.95;;;1.80;;
66603;SDS011;53460;39.612;8.822;2024-01-30T03:21:55;4.75;;;1.70;;
66603;SDS011;53460;39.612;8.822;2024-01-30T03:24:21;2.05;;;1.58;;
66603;SDS011;53460;39.612;8.822;2024-01-30T03:26:46;2.88;;;1.80;;
66603;SDS011;53460;39.612;8.822;2024-01-30T03:29:12;4.80;;;1.83;;
66603;SDS011;53460;39.612;8.822;2024-01-30T03:31:38;1.90;;;1.30;;
66603;SDS011;53460;39.612;8.822;2024-01-30T03:34:04;2.22;;;1.23;;
66603;SDS011;53460;39.612;8.822;2024-01-30T03:36:30;2.38;;;1.48;;
66603;SDS011;53460;39.612;8.822;2024-01-30T03:38:58;2.80;;;1.40;;
66603;SDS011;53460;39.612;8.822;2024-01-30T03:41:24;1.50;;;1.30;;
66603;SDS011;53460;39.612;8.822;2024-01-30T03:43:50;1.60;;;1.40;;
66603;SDS011;53460;39.612;8.822;2024-01-30T03:46:16;6.38;;;1.70;;
66603;SDS011;53460;39.612;8.822;2024-01-30T03:48:41;1.23;;;1.13;;
66603;SDS011;53460;39.612;8.822;2024-01-30T03:51:09;2.03;;;1.70;;
66603;SDS011;53460;39.612;8.822;2024-01-30T03:53:40;3.25;;;1.38;;
66603;SDS011;53460;39.612;8.822;2024-01-30T03:56:07;2.10;;;1.50;;
66603;SDS011;53460;39.612;8.822;2024-01-30T03:58:33;2.28;;;1.73;;
66603;SDS011;53460;39.612;8.822;2024-01-30T04:00:59;1.60;;;1.40;;
66603;SDS011;53460;39.612;8.822;2024-01-30T04:03:25;1.50;;;1.17;;
66603;SDS011;53460;39.612;8.822;2024-01-30T04:05:54;3.63;;;1.60;;
66603;SDS011;53460;39.612;8.822;2024-01-30T04:08:19;1.83;;;1.50;;
66603;SDS011;53460;39.612;8.822;2024-01-30T04:10:46;2.60;;;1.20;;
66603;SDS011;53460;39.612;8.822;2024-01-30T04:13:12;2.95;;;2.33;;
66603;SDS011;53460;39.612;8.822;2024-01-30T04:15:39;3.30;;;2.50;;
66603;SDS011;53460;39.612;8.822;2024-01-30T04:18:05;2.47;;;1.65;;
66603;SDS011;53460;39.612;8.822;2024-01-30T04:20:31;1.55;;;1.38;;
66603;SDS011;53460;39.612;8.822;2024-01-30T04:22:56;2.80;;;1.70;;
66603;SDS011;53460;39.612;8.822;2024-01-30T04:25:22;1.90;;;1.30;;
66603;SDS011;53460;39.612;8.822;2024-01-30T04:27:48;2.38;;;1.17;;
66603;SDS011;53460;39.612;8.822;2024-01-30T04:30:14;1.80;;;1.48;;
66603;SDS011;53460;39.612;8.822;2024-01-30T04:32:40;2.83;;;1.20;;
66603;SDS011;53460;39.612;8.822;2024-01-30T04:35:06;1.15;;;1.05;;
66603;SDS011;53460;39.612;8.822;2024-01-30T04:37:32;2.03;;;1.33;;
66603;SDS011;53460;39.612;8.822;2024-01-30T04:39:58;1.25;;;1.08;;
66603;SDS011;53460;39.612;8.822;2024-01-30T04:42:23;4.60;;;1.33;;
66603;SDS011;53460;39.612;8.822;2024-01-30T04:44:49;3.85;;;1.65;;
66603;SDS011;53460;39.612;8.822;2024-01-30T04:47:15;2.03;;;1.20;;
66603;SDS011;53460;39.612;8.822;2024-01-30T04:49:42;1.50;;;1.40;;
66603;SDS011;53460;39.612;8.822;2024-01-30T04:52:08;2.42;;;1.33;;
66603;SDS011;53460;39.612;8.822;2024-01-30T04:54:34;1.35;;;1.05;;
66603;SDS011;53460;39.612;8.822;2024-01-30T04:57:01;1.73;;;1.10;;
66603;SDS011;53460;39.612;8.822;2024-01-30T04:59:27;1.70;;;1.30;;
66603;SDS011;53460;39.612;8.822;2024-01-30T05:01:53;3.10;;;1.23;;
66603;SDS011;53460;39.612;8.822;2024-01-30T05:04:19;2.33;;;1.30;;
66603;SDS011;53460;39.612;8.822;2024-01-30T05:06:45;2.95;;;1.30;;
66603;SDS011;53460;39.612;8.822;2024-01-30T05:09:11;2.13;;;1.27;;
66603;SDS011;53460;39.612;8.822;2024-01-30T05:11:37;1.35;;;1.17;;
66603;SDS011;53460;39.612;8.822;2024-01-30T05:14:04;3.05;;;1.10;;
66603;SDS011;53460;39.612;8.822;2024-01-30T05:16:31;2.22;;;1.25;;
66603;SDS011;53460;39.612;8.822;2024-01-30T05:18:57;1.85;;;1.25;;
66603;SDS011;53460;39.612;8.822;2024-01-30T05:21:23;1.63;;;1.33;;
66603;SDS011;53460;39.612;8.822;2024-01-30T05:23:49;1.20;;;1.10;;
66603;SDS011;53460;39.612;8.822;2024-01-30T05:26:15;1.40;;;1.10;;
66603;SDS011;53460;39.612;8.822;2024-01-30T05:28:41;1.80;;;1.38;;
66603;SDS011;53460;39.612;8.822;2024-01-30T05:31:07;1.55;;;1.15;;
66603;SDS011;53460;39.612;8.822;2024-01-30T05:33:33;2.60;;;2.20;;
66603;SDS011;53460;39.612;8.822;2024-01-30T05:35:59;4.95;;;2.67;;
66603;SDS011;53460;39.612;8.822;2024-01-30T05:38:24;1.70;;;1.55;;
66603;SDS011;53460;39.612;8.822;2024-01-30T05:40:50;3.15;;;1.27;;
66603;SDS011;53460;39.612;8.822;2024-01-30T05:43:16;2.17;;;1.30;;
66603;SDS011;53460;39.612;8.822;2024-01-30T05:45:42;1.90;;;1.77;;
66603;SDS011;53460;39.612;8.822;2024-01-30T05:48:08;2.42;;;2.08;;
66603;SDS011;53460;39.612;8.822;2024-01-30T05:50:33;4.13;;;2.08;;
66603;SDS011;53460;39.612;8.822;2024-01-30T05:52:59;2.83;;;2.55;;
66603;SDS011;53460;39.612;8.822;2024-01-30T05:55:25;3.10;;;2.65;;
66603;SDS011;53460;39.612;8.822;2024-01-30T05:57:51;4.38;;;2.50;;
66603;SDS011;53460;39.612;8.822;2024-01-30T06:00:18;2.00;;;1.73;;
66603;SDS011;53460;39.612;8.822;2024-01-30T06:02:43;2.72;;;2.22;;
66603;SDS011;53460;39.612;8.822;2024-01-30T06:05:09;13.95;;;8.13;;
66603;SDS011;53460;39.612;8.822;2024-01-30T06:07:35;8.10;;;4.78;;
66603;SDS011;53460;39.612;8.822;2024-01-30T06:10:01;5.43;;;2.80;;
66603;SDS011;53460;39.612;8.822;2024-01-30T06:12:28;3.05;;;1.92;;
66603;SDS011;53460;39.612;8.822;2024-01-30T06:14:54;5.88;;;2.28;;
66603;SDS011;53460;39.612;8.822;2024-01-30T06:17:22;1.63;;;1.50;;
66603;SDS011;53460;39.612;8.822;2024-01-30T06:19:48;7.07;;;1.48;;
66603;SDS011;53460;39.612;8.822;2024-01-30T06:22:15;1.55;;;1.45;;
66603;SDS011;53460;39.612;8.822;2024-01-30T06:24:41;1.70;;;1.10;;
66603;SDS011;53460;39.612;8.822;2024-01-30T06:27:07;2.78;;;2.50;;
66603;SDS011;53460;39.612;8.822;2024-01-30T06:29:33;12.90;;;8.80;;
66603;SDS011;53460;39.612;8.822;2024-01-30T06:31:59;2.58;;;2.15;;
66603;SDS011;53460;39.612;8.822;2024-01-30T06:34:25;42.20;;;34.28;;
66603;SDS011;53460;39.612;8.822;2024-01-30T06:36:51;12.82;;;11.45;;
66603;SDS011;53460;39.612;8.822;2024-01-30T06:39:17;13.38;;;12.10;;
66603;SDS011;53460;39.612;8.822;2024-01-30T06:41:43;16.88;;;14.00;;
66603;SDS011;53460;39.612;8.822;2024-01-30T06:44:11;58.10;;;46.83;;
66603;SDS011;53460;39.612;8.822;2024-01-30T06:46:38;67.90;;;52.90;;
66603;SDS011;53460;39.612;8.822;2024-01-30T06:49:04;82.75;;;55.63;;
66603;SDS011;53460;39.612;8.822;2024-01-30T06:51:29;20.85;;;18.65;;
66603;SDS011;53460;39.612;8.822;2024-01-30T06:53:55;22.35;;;19.73;;
66603;SDS011;53460;39.612;8.822;2024-01-30T06:56:21;43.60;;;35.25;;
66603;SDS011;53460;39.612;8.822;2024-01-30T06:58:48;15.13;;;13.35;;
66603;SDS011;53460;39.612;8.822;2024-01-30T07:01:14;19.63;;;14.82;;
66603;SDS011;53460;39.612;8.822;2024-01-30T07:03:41;11.80;;;10.45;;
66603;SDS011;53460;39.612;8.822;2024-01-30T07:06:07;6.75;;;6.07;;
66603;SDS011;53460;39.612;8.822;2024-01-30T07:08:33;7.75;;;5.68;;
66603;SDS011;53460;39.612;8.822;2024-01-30T07:10:59;5.40;;;4.65;;
66603;SDS011;53460;39.612;8.822;2024-01-30T07:13:25;7.72;;;5.78;;
66603;SDS011;53460;39.612;8.822;2024-01-30T07:15:50;8.13;;;5.55;;
66603;SDS011;53460;39.612;8.822;2024-01-30T07:18:16;7.38;;;6.60;;
66603;SDS011;53460;39.612;8.822;2024-01-30T07:20:42;10.48;;;9.38;;
66603;SDS011;53460;39.612;8.822;2024-01-30T07:23:11;8.02;;;6.60;;
66603;SDS011;53460;39.612;8.822;2024-01-30T07:25:42;9.00;;;7.78;;
66603;SDS011;53460;39.612;8.822;2024-01-30T07:28:08;6.75;;;5.75;;
66603;SDS011;53460;39.612;8.822;2024-01-30T07:30:35;12.52;;;9.90;;
66603;SDS011;53460;39.612;8.822;2024-01-30T07:33:01;9.73;;;7.35;;
66603;SDS011;53460;39.612;8.822;2024-01-30T07:35:26;9.10;;;6.95;;
66603;SDS011;53460;39.612;8.822;2024-01-30T07:37:52;11.10;;;6.50;;
66603;SDS011;53460;39.612;8.822;2024-01-30T07:40:18;89.43;;;49.22;;
66603;SDS011;53460;39.612;8.822;2024-01-30T07:42:44;26.05;;;21.42;;
66603;SDS011;53460;39.612;8.822;2024-01-30T07:45:10;16.10;;;14.38;;
66603;SDS011;53460;39.612;8.822;2024-01-30T07:47:35;21.15;;;17.45;;
66603;SDS011;53460;39.612;8.822;2024-01-30T07:50:01;20.85;;;18.63;;
66603;SDS011;53460;39.612;8.822;2024-01-30T07:52:28;21.63;;;16.30;;
66603;SDS011;53460;39.612;8.822;2024-01-30T07:54:54;14.95;;;11.07;;
66603;SDS011;53460;39.612;8.822;2024-01-30T07:57:20;8.73;;;3.70;;
66603;SDS011;53460;39.612;8.822;2024-01-30T07:59:47;2.60;;;2.38;;
66603;SDS011;53460;39.612;8.822;2024-01-30T08:02:12;6.32;;;4.07;;
66603;SDS011;53460;39.612;8.822;2024-01-30T08:04:38;5.78;;;1.83;;
66603;SDS011;53460;39.612;8.822;2024-01-30T08:07:04;3.58;;;1.90;;
66603;SDS011;53460;39.612;8.822;2024-01-30T08:09:30;2.03;;;1.77;;
66603;SDS011;53460;39.612;8.822;2024-01-30T08:11:56;2.17;;;1.98;;
66603;SDS011;53460;39.612;8.822;2024-01-30T08:14:22;3.03;;;1.80;;
66603;SDS011;53460;39.612;8.822;2024-01-30T08:16:48;5.75;;;3.33;;
66603;SDS011;53460;39.612;8.822;2024-01-30T08:19:14;6.57;;;1.88;;
66603;SDS011;53460;39.612;8.822;2024-01-30T08:21:40;4.10;;;2.83;;
66603;SDS011;53460;39.612;8.822;2024-01-30T08:24:06;2.15;;;1.95;;
66603;SDS011;53460;39.612;8.822;2024-01-30T08:26:33;3.33;;;2.67;;
66603;SDS011;53460;39.612;8.822;2024-01-30T08:28:59;6.38;;;3.55;;
66603;SDS011;53460;39.612;8.822;2024-01-30T08:31:25;6.78;;;3.42;;
66603;SDS011;53460;39.612;8.822;2024-01-30T08:33:50;2.38;;;1.60;;
66603;SDS011;53460;39.612;8.822;2024-01-30T08:36:16;3.90;;;3.33;;
66603;SDS011;53460;39.612;8.822;2024-01-30T08:38:43;2.17;;;1.88;;
66603;SDS011;53460;39.612;8.822;2024-01-30T08:41:08;3.72;;;2.20;;
66603;SDS011;53460;39.612;8.822;2024-01-30T08:43:34;5.05;;;2.63;;
66603;SDS011;53460;39.612;8.822;2024-01-30T08:46:02;1.77;;;1.20;;
66603;SDS011;53460;39.612;8.822;2024-01-30T08:48:27;2.60;;;1.95;;
66603;SDS011;53460;39.612;8.822;2024-01-30T08:50:53;4.55;;;1.52;;
66603;SDS011;53460;39.612;8.822;2024-01-30T08:53:19;2.83;;;2.22;;
66603;SDS011;53460;39.612;8.822;2024-01-30T08:55:45;4.50;;;4.10;;
66603;SDS011;53460;39.612;8.822;2024-01-30T08:58:11;10.63;;;9.50;;
66603;SDS011;53460;39.612;8.822;2024-01-30T09:00:36;4.40;;;2.38;;
66603;SDS011;53460;39.612;8.822;2024-01-30T09:03:03;2.22;;;2.00;;
66603;SDS011;53460;39.612;8.822;2024-01-30T09:05:29;4.68;;;1.70;;
66603;SDS011;53460;39.612;8.822;2024-01-30T09:07:55;2.53;;;1.50;;
66603;SDS011;53460;39.612;8.822;2024-01-30T09:10:21;3.53;;;1.60;;
66603;SDS011;53460;39.612;8.822;2024-01-30T09:12:47;2.60;;;1.63;;
66603;SDS011;53460;39.612;8.822;2024-01-30T09:15:13;1.30;;;1.20;;
66603;SDS011;53460;39.612;8.822;2024-01-30T09:17:39;1.90;;;1.40;;
66603;SDS011;53460;39.612;8.822;2024-01-30T09:20:05;2.38;;;1.58;;
66603;SDS011;53460;39.612;8.822;2024-01-30T09:22:31;2.42;;;1.65;;
66603;SDS011;53460;39.612;8.822;2024-01-30T09:24:57;1.75;;;1.20;;
66603;SDS011;53460;39.612;8.822;2024-01-30T09:27:23;2.05;;;1.20;;
66603;SDS011;53460;39.612;8.822;2024-01-30T09:29:49;1.33;;;1.23;;
66603;SDS011;53460;39.612;8.822;2024-01-30T09:32:15;1.63;;;1.13;;
66603;SDS011;53460;39.612;8.822;2024-01-30T09:34:43;2.38;;;2.15;;
66603;SDS011;53460;39.612;8.822;2024-01-30T09:37:08;1.48;;;1.33;;
66603;SDS011;53460;39.612;8.822;2024-01-30T09:39:34;1.85;;;1.23;;
66603;SDS011;53460;39.612;8.822;2024-01-30T09:42:11;3.03;;;1.20;;
66603;SDS011;53460;39.612;8.822;2024-01-30T09:44:59;1.73;;;1.17;;
66603;SDS011;53460;39.612;8.822;2024-01-30T09:47:25;1.70;;;1.10;;
66603;SDS011;53460;39.612;8.822;2024-01-30T09:49:51;2.35;;;1.17;;
66603;SDS011;53460;39.612;8.822;2024-01-30T09:52:17;4.05;;;2.03;;
66603;SDS011;53460;39.612;8.822;2024-01-30T09:54:44;3.00;;;1.42;;
66603;SDS011;53460;39.612;8.822;2024-01-30T09:57:11;3.55;;;1.08;;
66603;SDS011;53460;39.612;8.822;2024-01-30T09:59:37;2.95;;;1.35;;
66603;SDS011;53460;39.612;8.822;2024-01-30T10:02:02;3.00;;;1.30;;
66603;SDS011;53460;39.612;8.822;2024-01-30T10:04:30;2.40;;;1.25;;
66603;SDS011;53460;39.612;8.822;2024-01-30T10:06:56;3.03;;;1.92;;
66603;SDS011;53460;39.612;8.822;2024-01-30T10:09:24;2.70;;;1.30;;
66603;SDS011;53460;39.612;8.822;2024-01-30T10:11:50;2.78;;;1.45;;
66603;SDS011;53460;39.612;8.822;2024-01-30T10:14:16;2.75;;;1.30;;
66603;SDS011;53460;39.612;8.822;2024-01-30T10:16:42;2.00;;;1.17;;
66603;SDS011;53460;39.612;8.822;2024-01-30T10:19:10;3.30;;;1.60;;
66603;SDS011;53460;39.612;8.822;2024-01-30T10:21:36;2.40;;;1.30;;
66603;SDS011;53460;39.612;8.822;2024-01-30T10:24:02;2.20;;;1.70;;
66603;SDS011;53460;39.612;8.822;2024-01-30T10:26:28;2.03;;;1.50;;
66603;SDS011;53460;39.612;8.822;2024-01-30T10:28:55;1.98;;;1.60;;
66603;SDS011;53460;39.612;8.822;2024-01-30T10:31:20;2.67;;;1.38;;
66603;SDS011;53460;39.612;8.822;2024-01-30T10:33:46;1.45;;;1.35;;
66603;SDS011;53460;39.612;8.822;2024-01-30T10:36:13;2.08;;;1.27;;
66603;SDS011;53460;39.612;8.822;2024-01-30T10:38:41;5.53;;;1.20;;
66603;SDS011;53460;39.612;8.822;2024-01-30T10:41:08;1.83;;;1.33;;
66603;SDS011;53460;39.612;8.822;2024-01-30T10:43:42;1.23;;;1.05;;
66603;SDS011;53460;39.612;8.822;2024-01-30T10:46:19;1.10;;;1.00;;
66603;SDS011;53460;39.612;8.822;2024-01-30T10:48:50;2.45;;;1.67;;
66603;SDS011;53460;39.612;8.822;2024-01-30T10:51:24;2.90;;;1.20;;
66603;SDS011;53460;39.612;8.822;2024-01-30T10:53:51;1.75;;;1.52;;
66603;SDS011;53460;39.612;8.822;2024-01-30T10:56:19;1.55;;;1.33;;
66603;SDS011;53460;39.612;8.822;2024-01-30T10:58:46;2.80;;;1.15;;
66603;SDS011;53460;39.612;8.822;2024-01-30T11:01:18;2.17;;;1.45;;
66603;SDS011;53460;39.612;8.822;2024-01-30T11:03:45;1.90;;;1.48;;
66603;SDS011;53460;39.612;8.822;2024-01-30T11:06:11;3.30;;;2.42;;
66603;SDS011;53460;39.612;8.822;2024-01-30T11:08:39;3.13;;;2.05;;
66603;SDS011;53460;39.612;8.822;2024-01-30T11:11:07;3.20;;;1.48;;
66603;SDS011;53460;39.612;8.822;2024-01-30T11:13:34;2.08;;;1.73;;
66603;SDS011;53460;39.612;8.822;2024-01-30T11:16:01;2.42;;;1.60;;
66603;SDS011;53460;39.612;8.822;2024-01-30T11:18:31;2.78;;;1.83;;
66603;SDS011;53460;39.612;8.822;2024-01-30T11:20:58;1.70;;;1.60;;
66603;SDS011;53460;39.612;8.822;2024-01-30T11:23:27;1.85;;;1.60;;
66603;SDS011;53460;39.612;8.822;2024-01-30T11:25:54;1.63;;;1.52;;
66603;SDS011;53460;39.612;8.822;2024-01-30T11:28:22;3.40;;;1.52;;
66603;SDS011;53460;39.612;8.822;2024-01-30T11:30:48;1.85;;;1.40;;
66603;SDS011;53460;39.612;8.822;2024-01-30T11:33:27;2.03;;;1.83;;
66603;SDS011;53460;39.612;8.822;2024-01-30T11:35:57;1.30;;;1.20;;
66603;SDS011;53460;39.612;8.822;2024-01-30T11:38:27;2.10;;;1.40;;
66603;SDS011;53460;39.612;8.822;2024-01-30T11:40:55;1.73;;;1.45;;
66603;SDS011;53460;39.612;8.822;2024-01-30T11:43:23;3.50;;;1.30;;
66603;SDS011;53460;39.612;8.822;2024-01-30T11:45:50;3.95;;;1.83;;
66603;SDS011;53460;39.612;8.822;2024-01-30T11:48:16;1.70;;;1.60;;
66603;SDS011;53460;39.612;8.822;2024-01-30T11:50:43;1.75;;;1.65;;
66603;SDS011;53460;39.612;8.822;2024-01-30T11:53:11;5.22;;;2.10;;
66603;SDS011;53460;39.612;8.822;2024-01-30T11:55:37;2.30;;;1.42;;
66603;SDS011;53460;39.612;8.822;2024-01-30T11:58:03;3.55;;;1.95;;
66603;SDS011;53460;39.612;8.822;2024-01-30T12:00:29;2.50;;;1.75;;
66603;SDS011;53460;39.612;8.822;2024-01-30T12:02:59;18.20;;;2.22;;
66603;SDS011;53460;39.612;8.822;2024-01-30T12:05:26;3.15;;;1.83;;
66603;SDS011;53460;39.612;8.822;2024-01-30T12:07:52;2.58;;;1.67;;
66603;SDS011;53460;39.612;8.822;2024-01-30T12:10:18;5.97;;;2.28;;
66603;SDS011;53460;39.612;8.822;2024-01-30T12:12:46;3.47;;;1.98;;
66603;SDS011;53460;39.612;8.822;2024-01-30T12:15:13;2.42;;;2.10;;
66603;SDS011;53460;39.612;8.822;2024-01-30T12:17:39;5.53;;;2.53;;
66603;SDS011;53460;39.612;8.822;2024-01-30T12:20:17;3.00;;;2.70;;
66603;SDS011;53460;39.612;8.822;2024-01-30T12:22:45;2.45;;;2.03;;
66603;SDS011;53460;39.612;8.822;2024-01-30T12:25:13;4.95;;;2.00;;
66603;SDS011;53460;39.612;8.822;2024-01-30T12:27:44;2.20;;;1.60;;
66603;SDS011;53460;39.612;8.822;2024-01-30T12:30:14;2.28;;;1.80;;
66603;SDS011;53460;39.612;8.822;2024-01-30T12:32:41;2.92;;;1.77;;
66603;SDS011;53460;39.612;8.822;2024-01-30T12:35:26;2.70;;;2.15;;
66603;SDS011;53460;39.612;8.822;2024-01-30T12:37:52;3.58;;;2.63;;
66603;SDS011;53460;39.612;8.822;2024-01-30T12:40:18;2.17;;;1.88;;
66603;SDS011;53460;39.612;8.822;2024-01-30T12:42:45;3.28;;;2.15;;
66603;SDS011;53460;39.612;8.822;2024-01-30T12:45:14;2.65;;;2.13;;
66603;SDS011;53460;39.612;8.822;2024-01-30T12:47:41;3.63;;;1.83;;
66603;SDS011;53460;39.612;8.822;2024-01-30T12:50:07;4.00;;;2.17;;
66603;SDS011;53460;39.612;8.822;2024-01-30T12:52:33;7.15;;;2.63;;
66603;SDS011;53460;39.612;8.822;2024-01-30T12:55:00;3.53;;;2.63;;
66603;SDS011;53460;39.612;8.822;2024-01-30T12:57:26;5.90;;;2.25;;
66603;SDS011;53460;39.612;8.822;2024-01-30T12:59:52;5.55;;;2.50;;
66603;SDS011;53460;39.612;8.822;2024-01-30T13:02:18;6.38;;;2.80;;
66603;SDS011;53460;39.612;8.822;2024-01-30T13:04:44;3.58;;;2.53;;
66603;SDS011;53460;39.612;8.822;2024-01-30T13:07:10;3.70;;;2.45;;
66603;SDS011;53460;39.612;8.822;2024-01-30T13:09:35;2.38;;;2.17;;
66603;SDS011;53460;39.612;8.822;2024-01-30T13:12:01;3.15;;;2.20;;
66603;SDS011;53460;39.612;8.822;2024-01-30T13:14:27;2.95;;;2.63;;
66603;SDS011;53460;39.612;8.822;2024-01-30T13:16:53;5.10;;;3.00;;
66603;SDS011;53460;39.612;8.822;2024-01-30T13:19:19;3.17;;;2.50;;
66603;SDS011;53460;39.612;8.822;2024-01-30T13:21:45;3.58;;;2.40;;
66603;SDS011;53460;39.612;8.822;2024-01-30T13:24:11;2.75;;;2.17;;
66603;SDS011;53460;39.612;8.822;2024-01-30T13:26:37;3.70;;;2.25;;
66603;SDS011;53460;39.612;8.822;2024-01-30T13:29:03;4.70;;;3.15;;
66603;SDS011;53460;39.612;8.822;2024-01-30T13:31:28;3.30;;;2.97;;
66603;SDS011;53460;39.612;8.822;2024-01-30T13:33:55;2.75;;;2.30;;
66603;SDS011;53460;39.612;8.822;2024-01-30T13:36:21;3.40;;;2.63;;
66603;SDS011;53460;39.612;8.822;2024-01-30T13:38:47;2.75;;;2.33;;
66603;SDS011;53460;39.612;8.822;2024-01-30T13:41:13;3.72;;;3.00;;
66603;SDS011;53460;39.612;8.822;2024-01-30T13:43:39;3.20;;;2.42;;
66603;SDS011;53460;39.612;8.822;2024-01-30T13:46:05;3.08;;;2.78;;
66603;SDS011;53460;39.612;8.822;2024-01-30T13:48:31;5.88;;;2.55;;
66603;SDS011;53460;39.612;8.822;2024-01-30T13:50:57;3.50;;;2.33;;
66603;SDS011;53460;39.612;8.822;2024-01-30T13:53:23;2.65;;;2.13;;
66603;SDS011;53460;39.612;8.822;2024-01-30T13:55:48;3.35;;;2.50;;
66603;SDS011;53460;39.612;8.822;2024-01-30T13:58:14;3.25;;;2.15;;
66603;SDS011;53460;39.612;8.822;2024-01-30T14:00:40;2.38;;;2.10;;
66603;SDS011;53460;39.612;8.822;2024-01-30T14:03:06;3.10;;;2.13;;
66603;SDS011;53460;39.612;8.822;2024-01-30T14:05:32;2.40;;;2.15;;
66603;SDS011;53460;39.612;8.822;2024-01-30T14:07:57;2.25;;;1.98;;
66603;SDS011;53460;39.612;8.822;2024-01-30T14:10:25;3.95;;;1.98;;
66603;SDS011;53460;39.612;8.822;2024-01-30T14:12:51;3.70;;;1.92;;
66603;SDS011;53460;39.612;8.822;2024-01-30T14:15:16;2.03;;;1.85;;
66603;SDS011;53460;39.612;8.822;2024-01-30T14:17:46;2.22;;;1.98;;
66603;SDS011;53460;39.612;8.822;2024-01-30T14:20:14;2.45;;;1.85;;
66603;SDS011;53460;39.612;8.822;2024-01-30T14:22:42;2.08;;;1.70;;
66603;SDS011;53460;39.612;8.822;2024-01-30T14:25:07;2.92;;;2.20;;
66603;SDS011;53460;39.612;8.822;2024-01-30T14:27:34;4.20;;;1.83;;
66603;SDS011;53460;39.612;8.822;2024-01-30T14:30:01;3.63;;;1.90;;
66603;SDS011;53460;39.612;8.822;2024-01-30T14:32:28;3.63;;;2.10;;
66603;SDS011;53460;39.612;8.822;2024-01-30T14:34:54;4.43;;;1.90;;
66603;SDS011;53460;39.612;8.822;2024-01-30T14:37:20;4.55;;;2.22;;
66603;SDS011;53460;39.612;8.822;2024-01-30T14:39:46;5.15;;;2.67;;
66603;SDS011;53460;39.612;8.822;2024-01-30T14:42:13;2.67;;;1.90;;